sensor_id;sensor_type;location;lat;lon;timestamp;P1;durP1;ratioP1;P2;durP2;ratioP2
10246;SDS011;5168;47.854;7.944;2022-10-31T00:01:35;4.53;;;2.20;;
10246;SDS011;5168;47.854;7.944;2022-10-31T00:04:03;5.27;;;2.20;;
10246;SDS011;5168;47.854;7.944;2022-10-31T00:06:30;4.57;;;1.97;;
10246;SDS011;5168;47.854;7.944;2022-10-31T00:08:56;2.03;;;1.60;;
10246;SDS011;5168;47.854;7.944;2022-10-31T00:11:24;3.23;;;1.87;;
10246;SDS011;5168;47.854;7.944;2022-10-31T00:13:50;4.20;;;2.33;;
10246;SDS011;5168;47.854;7.944;2022-10-31T00:16:16;2.50;;;1.90;;
10246;SDS011;5168;47.854;7.944;2022-10-31T00:18:54;3.23;;;1.80;;
10246;SDS011;5168;47.854;7.944;2022-10-31T00:21:21;3.30;;;2.27;;
10246;SDS011;5168;47.854;7.944;2022-10-31T00:23:47;4.37;;;1.90;;
10246;SDS011;5168;47.854;7.944;2022-10-31T00:26:13;3.03;;;1.90;;
10246;SDS011;5168;47.854;7.944;2022-10-31T00:28:39;5.10;;;2.07;;
10246;SDS011;5168;47.854;7.944;2022-10-31T00:31:06;4.97;;;2.00;;
10246;SDS011;5168;47.854;7.944;2022-10-31T00:33:34;4.63;;;2.00;;
10246;SDS011;5168;47.854;7.944;2022-10-31T00:36:01;4.47;;;1.83;;
10246;SDS011;5168;47.854;7.944;2022-10-31T00:38:28;5.57;;;2.03;;
10246;SDS011;5168;47.854;7.944;2022-10-31T00:40:54;2.43;;;1.93;;
10246;SDS011;5168;47.854;7.944;2022-10-31T00:43:20;3.70;;;2.03;;
10246;SDS011;5168;47.854;7.944;2022-10-31T00:45:46;3.47;;;1.80;;
10246;SDS011;5168;47.854;7.944;2022-10-31T00:48:12;4.37;;;2.00;;
10246;SDS011;5168;47.854;7.944;2022-10-31T00:50:38;5.77;;;1.83;;
10246;SDS011;5168;47.854;7.944;2022-10-31T00:53:04;1.80;;;1.70;;
10246;SDS011;5168;47.854;7.944;2022-10-31T00:55:30;6.70;;;2.13;;
10246;SDS011;5168;47.854;7.944;2022-10-31T00:57:56;5.73;;;2.47;;
10246;SDS011;5168;47.854;7.944;2022-10-31T01:00:22;4.00;;;1.90;;
10246;SDS011;5168;47.854;7.944;2022-10-31T01:02:48;4.17;;;1.93;;
10246;SDS011;5168;47.854;7.944;2022-10-31T01:05:14;3.10;;;2.10;;
10246;SDS011;5168;47.854;7.944;2022-10-31T01:07:40;4.97;;;2.53;;
10246;SDS011;5168;47.854;7.944;2022-10-31T01:10:06;5.13;;;2.63;;
10246;SDS011;5168;47.854;7.944;2022-10-31T01:12:40;3.77;;;2.30;;
10246;SDS011;5168;47.854;7.944;2022-10-31T01:15:08;5.63;;;2.10;;
10246;SDS011;5168;47.854;7.944;2022-10-31T01:17:34;3.03;;;1.80;;
10246;SDS011;5168;47.854;7.944;2022-10-31T01:20:00;3.50;;;1.70;;
10246;SDS011;5168;47.854;7.944;2022-10-31T01:22:25;4.33;;;2.47;;
10246;SDS011;5168;47.854;7.944;2022-10-31T01:24:51;4.23;;;1.90;;
10246;SDS011;5168;47.854;7.944;2022-10-31T01:27:17;3.77;;;2.20;;
10246;SDS011;5168;47.854;7.944;2022-10-31T01:29:43;4.97;;;2.00;;
10246;SDS011;5168;47.854;7.944;2022-10-31T01:32:09;4.20;;;1.80;;
10246;SDS011;5168;47.854;7.944;2022-10-31T01:34:35;3.43;;;2.20;;
10246;SDS011;5168;47.854;7.944;2022-10-31T01:37:01;4.97;;;2.20;;
10246;SDS011;5168;47.854;7.944;2022-10-31T01:39:26;3.17;;;1.83;;
10246;SDS011;5168;47.854;7.944;2022-10-31T01:41:52;3.80;;;2.20;;
10246;SDS011;5168;47.854;7.944;2022-10-31T01:46:46;4.03;;;2.50;;
10246;SDS011;5168;47.854;7.944;2022-10-31T01:49:34;3.43;;;2.10;;
10246;SDS011;5168;47.854;7.944;2022-10-31T01:54:43;2.17;;;1.60;;
10246;SDS011;5168;47.854;7.944;2022-10-31T01:57:18;2.80;;;1.80;;
10246;SDS011;5168;47.854;7.944;2022-10-31T01:59:47;4.53;;;2.10;;
10246;SDS011;5168;47.854;7.944;2022-10-31T02:02:16;4.63;;;2.07;;
10246;SDS011;5168;47.854;7.944;2022-10-31T02:04:43;4.13;;;2.17;;
10246;SDS011;5168;47.854;7.944;2022-10-31T02:07:13;5.43;;;2.33;;
10246;SDS011;5168;47.854;7.944;2022-10-31T02:09:42;3.37;;;1.80;;
10246;SDS011;5168;47.854;7.944;2022-10-31T02:12:09;5.17;;;2.10;;
10246;SDS011;5168;47.854;7.944;2022-10-31T02:14:36;2.93;;;1.90;;
10246;SDS011;5168;47.854;7.944;2022-10-31T02:17:03;3.27;;;1.80;;
10246;SDS011;5168;47.854;7.944;2022-10-31T02:25:16;3.27;;;2.10;;
10246;SDS011;5168;47.854;7.944;2022-10-31T02:30:24;2.97;;;1.87;;
10246;SDS011;5168;47.854;7.944;2022-10-31T02:38:42;5.47;;;2.03;;
10246;SDS011;5168;47.854;7.944;2022-10-31T02:52:19;3.27;;;1.80;;
10246;SDS011;5168;47.854;7.944;2022-10-31T02:54:48;2.57;;;1.93;;
10246;SDS011;5168;47.854;7.944;2022-10-31T02:57:15;7.07;;;2.00;;
10246;SDS011;5168;47.854;7.944;2022-10-31T02:59:49;5.03;;;1.90;;
10246;SDS011;5168;47.854;7.944;2022-10-31T03:02:31;3.23;;;2.17;;
10246;SDS011;5168;47.854;7.944;2022-10-31T03:05:02;3.23;;;1.90;;
10246;SDS011;5168;47.854;7.944;2022-10-31T03:07:46;3.53;;;2.00;;
10246;SDS011;5168;47.854;7.944;2022-10-31T03:15:57;2.30;;;1.67;;
10246;SDS011;5168;47.854;7.944;2022-10-31T03:18:28;4.97;;;2.03;;
10246;SDS011;5168;47.854;7.944;2022-10-31T03:21:11;6.60;;;2.13;;
10246;SDS011;5168;47.854;7.944;2022-10-31T03:23:47;5.40;;;1.97;;
10246;SDS011;5168;47.854;7.944;2022-10-31T03:26:15;3.63;;;1.87;;
10246;SDS011;5168;47.854;7.944;2022-10-31T03:28:43;3.53;;;2.00;;
10246;SDS011;5168;47.854;7.944;2022-10-31T03:31:32;3.33;;;1.93;;
10246;SDS011;5168;47.854;7.944;2022-10-31T03:34:02;3.60;;;2.10;;
10246;SDS011;5168;47.854;7.944;2022-10-31T03:36:30;3.03;;;1.70;;
10246;SDS011;5168;47.854;7.944;2022-10-31T03:38:59;2.83;;;1.80;;
10246;SDS011;5168;47.854;7.944;2022-10-31T03:41:29;3.80;;;1.87;;
10246;SDS011;5168;47.854;7.944;2022-10-31T03:43:59;5.70;;;2.00;;
10246;SDS011;5168;47.854;7.944;2022-10-31T03:46:29;2.90;;;2.00;;
10246;SDS011;5168;47.854;7.944;2022-10-31T03:48:56;5.17;;;2.20;;
10246;SDS011;5168;47.854;7.944;2022-10-31T03:51:29;4.23;;;2.10;;
10246;SDS011;5168;47.854;7.944;2022-10-31T03:54:04;2.47;;;1.87;;
10246;SDS011;5168;47.854;7.944;2022-10-31T03:56:40;3.20;;;1.80;;
10246;SDS011;5168;47.854;7.944;2022-10-31T03:59:20;2.73;;;2.00;;
10246;SDS011;5168;47.854;7.944;2022-10-31T04:01:56;1.80;;;1.60;;
10246;SDS011;5168;47.854;7.944;2022-10-31T04:04:27;2.40;;;1.90;;
10246;SDS011;5168;47.854;7.944;2022-10-31T04:06:54;1.70;;;1.60;;
10246;SDS011;5168;47.854;7.944;2022-10-31T04:09:22;3.00;;;1.50;;
10246;SDS011;5168;47.854;7.944;2022-10-31T04:11:49;6.77;;;2.30;;
10246;SDS011;5168;47.854;7.944;2022-10-31T04:14:18;6.47;;;1.97;;
10246;SDS011;5168;47.854;7.944;2022-10-31T04:16:43;2.93;;;2.00;;
10246;SDS011;5168;47.854;7.944;2022-10-31T04:19:10;6.17;;;2.03;;
10246;SDS011;5168;47.854;7.944;2022-10-31T04:21:36;3.13;;;2.03;;
10246;SDS011;5168;47.854;7.944;2022-10-31T04:24:02;3.33;;;2.17;;
10246;SDS011;5168;47.854;7.944;2022-10-31T04:26:28;3.03;;;1.90;;
10246;SDS011;5168;47.854;7.944;2022-10-31T04:28:54;3.47;;;1.83;;
10246;SDS011;5168;47.854;7.944;2022-10-31T04:31:20;2.70;;;1.80;;
10246;SDS011;5168;47.854;7.944;2022-10-31T04:33:46;2.77;;;1.70;;
10246;SDS011;5168;47.854;7.944;2022-10-31T04:36:12;1.73;;;1.63;;
10246;SDS011;5168;47.854;7.944;2022-10-31T04:38:38;1.70;;;1.60;;
10246;SDS011;5168;47.854;7.944;2022-10-31T04:41:04;2.13;;;1.70;;
10246;SDS011;5168;47.854;7.944;2022-10-31T04:43:30;2.20;;;1.67;;
10246;SDS011;5168;47.854;7.944;2022-10-31T04:45:56;2.97;;;1.70;;
10246;SDS011;5168;47.854;7.944;2022-10-31T04:48:22;2.60;;;1.73;;
10246;SDS011;5168;47.854;7.944;2022-10-31T04:50:47;2.60;;;1.83;;
10246;SDS011;5168;47.854;7.944;2022-10-31T04:53:13;1.97;;;1.60;;
10246;SDS011;5168;47.854;7.944;2022-10-31T04:55:39;2.70;;;1.60;;
10246;SDS011;5168;47.854;7.944;2022-10-31T04:58:05;2.20;;;1.50;;
10246;SDS011;5168;47.854;7.944;2022-10-31T05:00:31;2.73;;;1.60;;
10246;SDS011;5168;47.854;7.944;2022-10-31T05:02:57;2.23;;;1.70;;
10246;SDS011;5168;47.854;7.944;2022-10-31T05:05:24;3.10;;;1.60;;
10246;SDS011;5168;47.854;7.944;2022-10-31T05:07:52;2.37;;;1.77;;
10246;SDS011;5168;47.854;7.944;2022-10-31T05:10:19;2.57;;;1.90;;
10246;SDS011;5168;47.854;7.944;2022-10-31T05:12:50;1.67;;;1.53;;
10246;SDS011;5168;47.854;7.944;2022-10-31T05:15:20;4.13;;;1.83;;
10246;SDS011;5168;47.854;7.944;2022-10-31T05:17:47;7.27;;;2.13;;
10246;SDS011;5168;47.854;7.944;2022-10-31T05:20:14;5.07;;;1.90;;
10246;SDS011;5168;47.854;7.944;2022-10-31T05:22:41;2.33;;;1.93;;
10246;SDS011;5168;47.854;7.944;2022-10-31T05:25:08;2.50;;;1.70;;
10246;SDS011;5168;47.854;7.944;2022-10-31T05:27:34;4.73;;;1.77;;
10246;SDS011;5168;47.854;7.944;2022-10-31T05:30:00;2.97;;;1.63;;
10246;SDS011;5168;47.854;7.944;2022-10-31T05:32:25;3.83;;;2.20;;
10246;SDS011;5168;47.854;7.944;2022-10-31T05:34:51;5.33;;;2.03;;
10246;SDS011;5168;47.854;7.944;2022-10-31T05:37:17;5.50;;;2.00;;
10246;SDS011;5168;47.854;7.944;2022-10-31T05:39:43;4.00;;;2.07;;
10246;SDS011;5168;47.854;7.944;2022-10-31T05:42:09;5.83;;;2.47;;
10246;SDS011;5168;47.854;7.944;2022-10-31T05:44:34;4.30;;;2.13;;
10246;SDS011;5168;47.854;7.944;2022-10-31T05:47:00;2.73;;;1.93;;
10246;SDS011;5168;47.854;7.944;2022-10-31T05:49:26;3.67;;;1.97;;
10246;SDS011;5168;47.854;7.944;2022-10-31T05:51:52;3.70;;;1.83;;
10246;SDS011;5168;47.854;7.944;2022-10-31T05:54:18;4.53;;;2.00;;
10246;SDS011;5168;47.854;7.944;2022-10-31T05:56:44;4.10;;;1.90;;
10246;SDS011;5168;47.854;7.944;2022-10-31T05:59:10;4.20;;;1.97;;
10246;SDS011;5168;47.854;7.944;2022-10-31T06:01:35;5.10;;;2.27;;
10246;SDS011;5168;47.854;7.944;2022-10-31T06:04:01;2.37;;;1.80;;
10246;SDS011;5168;47.854;7.944;2022-10-31T06:06:27;3.70;;;1.93;;
10246;SDS011;5168;47.854;7.944;2022-10-31T06:08:53;4.10;;;1.70;;
10246;SDS011;5168;47.854;7.944;2022-10-31T06:11:18;5.07;;;2.40;;
10246;SDS011;5168;47.854;7.944;2022-10-31T06:13:44;4.13;;;2.00;;
10246;SDS011;5168;47.854;7.944;2022-10-31T06:16:10;3.13;;;1.90;;
10246;SDS011;5168;47.854;7.944;2022-10-31T06:18:36;2.83;;;2.00;;
10246;SDS011;5168;47.854;7.944;2022-10-31T06:21:02;5.40;;;1.93;;
10246;SDS011;5168;47.854;7.944;2022-10-31T06:23:28;3.27;;;1.60;;
10246;SDS011;5168;47.854;7.944;2022-10-31T06:25:54;3.67;;;2.27;;
10246;SDS011;5168;47.854;7.944;2022-10-31T06:28:20;2.93;;;1.70;;
10246;SDS011;5168;47.854;7.944;2022-10-31T06:30:46;4.03;;;1.90;;
10246;SDS011;5168;47.854;7.944;2022-10-31T06:33:12;2.47;;;1.47;;
10246;SDS011;5168;47.854;7.944;2022-10-31T06:35:38;2.73;;;1.70;;
10246;SDS011;5168;47.854;7.944;2022-10-31T06:38:10;2.20;;;1.80;;
10246;SDS011;5168;47.854;7.944;2022-10-31T06:40:36;3.20;;;1.70;;
10246;SDS011;5168;47.854;7.944;2022-10-31T06:43:02;2.30;;;1.90;;
10246;SDS011;5168;47.854;7.944;2022-10-31T06:45:27;2.10;;;1.57;;
10246;SDS011;5168;47.854;7.944;2022-10-31T06:47:53;3.30;;;1.70;;
10246;SDS011;5168;47.854;7.944;2022-10-31T06:50:20;4.07;;;1.87;;
10246;SDS011;5168;47.854;7.944;2022-10-31T06:52:52;2.80;;;1.80;;
10246;SDS011;5168;47.854;7.944;2022-10-31T06:55:19;2.30;;;1.83;;
10246;SDS011;5168;47.854;7.944;2022-10-31T07:00:18;2.33;;;1.50;;
10246;SDS011;5168;47.854;7.944;2022-10-31T07:02:52;4.70;;;1.70;;
10246;SDS011;5168;47.854;7.944;2022-10-31T07:05:28;3.53;;;1.90;;
10246;SDS011;5168;47.854;7.944;2022-10-31T07:07:58;2.90;;;1.63;;
10246;SDS011;5168;47.854;7.944;2022-10-31T07:10:26;4.20;;;1.90;;
10246;SDS011;5168;47.854;7.944;2022-10-31T07:12:56;3.43;;;1.70;;
10246;SDS011;5168;47.854;7.944;2022-10-31T07:15:23;2.87;;;1.60;;
10246;SDS011;5168;47.854;7.944;2022-10-31T07:17:50;1.63;;;1.40;;
10246;SDS011;5168;47.854;7.944;2022-10-31T07:20:16;1.57;;;1.47;;
10246;SDS011;5168;47.854;7.944;2022-10-31T07:22:42;2.10;;;1.40;;
10246;SDS011;5168;47.854;7.944;2022-10-31T07:25:08;2.50;;;1.50;;
10246;SDS011;5168;47.854;7.944;2022-10-31T07:27:37;2.00;;;1.30;;
10246;SDS011;5168;47.854;7.944;2022-10-31T07:30:05;1.60;;;1.40;;
10246;SDS011;5168;47.854;7.944;2022-10-31T07:32:50;3.83;;;1.70;;
10246;SDS011;5168;47.854;7.944;2022-10-31T07:35:17;2.07;;;1.63;;
10246;SDS011;5168;47.854;7.944;2022-10-31T07:37:47;2.37;;;1.37;;
10246;SDS011;5168;47.854;7.944;2022-10-31T07:40:13;1.60;;;1.50;;
10246;SDS011;5168;47.854;7.944;2022-10-31T07:42:40;2.00;;;1.60;;
10246;SDS011;5168;47.854;7.944;2022-10-31T07:45:11;1.60;;;1.50;;
10246;SDS011;5168;47.854;7.944;2022-10-31T07:47:39;3.07;;;1.80;;
10246;SDS011;5168;47.854;7.944;2022-10-31T07:50:04;2.47;;;1.90;;
10246;SDS011;5168;47.854;7.944;2022-10-31T07:52:30;2.60;;;1.80;;
10246;SDS011;5168;47.854;7.944;2022-10-31T07:54:56;3.00;;;1.60;;
10246;SDS011;5168;47.854;7.944;2022-10-31T07:57:22;2.40;;;1.57;;
10246;SDS011;5168;47.854;7.944;2022-10-31T07:59:48;1.87;;;1.50;;
10246;SDS011;5168;47.854;7.944;2022-10-31T08:02:14;1.93;;;1.47;;
10246;SDS011;5168;47.854;7.944;2022-10-31T08:04:40;3.03;;;1.90;;
10246;SDS011;5168;47.854;7.944;2022-10-31T08:07:06;4.60;;;1.63;;
10246;SDS011;5168;47.854;7.944;2022-10-31T08:09:32;2.43;;;1.60;;
10246;SDS011;5168;47.854;7.944;2022-10-31T08:11:58;2.70;;;1.47;;
10246;SDS011;5168;47.854;7.944;2022-10-31T08:14:24;4.50;;;1.70;;
10246;SDS011;5168;47.854;7.944;2022-10-31T08:16:51;2.23;;;1.70;;
10246;SDS011;5168;47.854;7.944;2022-10-31T08:19:17;3.70;;;1.93;;
10246;SDS011;5168;47.854;7.944;2022-10-31T08:21:43;2.90;;;1.60;;
10246;SDS011;5168;47.854;7.944;2022-10-31T08:24:09;2.60;;;1.63;;
10246;SDS011;5168;47.854;7.944;2022-10-31T08:26:35;2.10;;;1.50;;
10246;SDS011;5168;47.854;7.944;2022-10-31T08:29:01;2.30;;;1.57;;
10246;SDS011;5168;47.854;7.944;2022-10-31T08:31:27;4.07;;;2.13;;
10246;SDS011;5168;47.854;7.944;2022-10-31T08:33:53;3.60;;;1.67;;
10246;SDS011;5168;47.854;7.944;2022-10-31T08:36:19;3.93;;;1.70;;
10246;SDS011;5168;47.854;7.944;2022-10-31T08:38:46;2.60;;;1.67;;
10246;SDS011;5168;47.854;7.944;2022-10-31T08:41:12;2.73;;;1.87;;
10246;SDS011;5168;47.854;7.944;2022-10-31T08:43:38;3.67;;;1.60;;
10246;SDS011;5168;47.854;7.944;2022-10-31T08:46:04;1.63;;;1.27;;
10246;SDS011;5168;47.854;7.944;2022-10-31T08:48:30;3.43;;;1.70;;
10246;SDS011;5168;47.854;7.944;2022-10-31T08:50:57;1.50;;;1.40;;
10246;SDS011;5168;47.854;7.944;2022-10-31T08:53:23;1.50;;;1.40;;
10246;SDS011;5168;47.854;7.944;2022-10-31T08:55:49;1.30;;;1.20;;
10246;SDS011;5168;47.854;7.944;2022-10-31T08:58:16;1.20;;;1.10;;
10246;SDS011;5168;47.854;7.944;2022-10-31T09:00:43;1.30;;;1.20;;
10246;SDS011;5168;47.854;7.944;2022-10-31T09:03:11;2.07;;;1.23;;
10246;SDS011;5168;47.854;7.944;2022-10-31T09:05:39;1.90;;;1.37;;
10246;SDS011;5168;47.854;7.944;2022-10-31T09:08:06;1.87;;;1.20;;
10246;SDS011;5168;47.854;7.944;2022-10-31T09:10:33;1.50;;;1.30;;
10246;SDS011;5168;47.854;7.944;2022-10-31T09:13:04;1.40;;;1.30;;
10246;SDS011;5168;47.854;7.944;2022-10-31T09:15:56;2.30;;;1.60;;
10246;SDS011;5168;47.854;7.944;2022-10-31T09:18:24;3.23;;;2.40;;
10246;SDS011;5168;47.854;7.944;2022-10-31T09:20:52;6.57;;;4.10;;
10246;SDS011;5168;47.854;7.944;2022-10-31T09:23:19;9.60;;;3.90;;
10246;SDS011;5168;47.854;7.944;2022-10-31T09:25:46;7.97;;;4.23;;
10246;SDS011;5168;47.854;7.944;2022-10-31T09:28:14;6.67;;;4.53;;
10246;SDS011;5168;47.854;7.944;2022-10-31T09:30:41;6.30;;;4.03;;
10246;SDS011;5168;47.854;7.944;2022-10-31T09:33:11;5.70;;;3.83;;
10246;SDS011;5168;47.854;7.944;2022-10-31T09:35:37;7.43;;;3.20;;
10246;SDS011;5168;47.854;7.944;2022-10-31T09:38:11;5.30;;;3.27;;
10246;SDS011;5168;47.854;7.944;2022-10-31T09:40:42;3.70;;;2.80;;
10246;SDS011;5168;47.854;7.944;2022-10-31T09:45:48;4.00;;;2.10;;
10246;SDS011;5168;47.854;7.944;2022-10-31T09:48:44;6.47;;;2.00;;
10246;SDS011;5168;47.854;7.944;2022-10-31T09:51:34;2.80;;;1.60;;
10246;SDS011;5168;47.854;7.944;2022-10-31T09:54:06;3.03;;;1.50;;
10246;SDS011;5168;47.854;7.944;2022-10-31T09:56:37;5.73;;;1.60;;
10246;SDS011;5168;47.854;7.944;2022-10-31T09:59:04;2.43;;;1.37;;
10246;SDS011;5168;47.854;7.944;2022-10-31T10:01:49;3.63;;;1.67;;
10246;SDS011;5168;47.854;7.944;2022-10-31T10:07:29;4.50;;;1.70;;
10246;SDS011;5168;47.854;7.944;2022-10-31T10:10:00;3.27;;;2.00;;
10246;SDS011;5168;47.854;7.944;2022-10-31T10:17:41;2.07;;;1.60;;
10246;SDS011;5168;47.854;7.944;2022-10-31T10:26:19;1.70;;;1.27;;
10246;SDS011;5168;47.854;7.944;2022-10-31T10:28:48;2.43;;;1.80;;
10246;SDS011;5168;47.854;7.944;2022-10-31T10:31:18;4.87;;;2.00;;
10246;SDS011;5168;47.854;7.944;2022-10-31T10:36:41;3.73;;;1.70;;
10246;SDS011;5168;47.854;7.944;2022-10-31T10:41:47;5.73;;;2.00;;
10246;SDS011;5168;47.854;7.944;2022-10-31T10:44:32;2.77;;;2.13;;
10246;SDS011;5168;47.854;7.944;2022-10-31T10:47:17;2.50;;;2.07;;
10246;SDS011;5168;47.854;7.944;2022-10-31T10:50:03;3.60;;;1.80;;
10246;SDS011;5168;47.854;7.944;2022-10-31T10:55:44;4.60;;;2.10;;
10246;SDS011;5168;47.854;7.944;2022-10-31T10:58:20;6.47;;;2.03;;
10246;SDS011;5168;47.854;7.944;2022-10-31T11:00:46;3.80;;;2.03;;
10246;SDS011;5168;47.854;7.944;2022-10-31T11:03:14;8.07;;;2.80;;
10246;SDS011;5168;47.854;7.944;2022-10-31T11:08:27;4.63;;;2.50;;
10246;SDS011;5168;47.854;7.944;2022-10-31T11:10:58;5.07;;;2.67;;
10246;SDS011;5168;47.854;7.944;2022-10-31T11:13:26;4.27;;;2.33;;
10246;SDS011;5168;47.854;7.944;2022-10-31T11:18:27;4.03;;;2.27;;
10246;SDS011;5168;47.854;7.944;2022-10-31T11:20:57;5.23;;;2.23;;
10246;SDS011;5168;47.854;7.944;2022-10-31T11:23:25;5.43;;;2.50;;
10246;SDS011;5168;47.854;7.944;2022-10-31T11:28:22;4.40;;;2.50;;
10246;SDS011;5168;47.854;7.944;2022-10-31T11:30:49;8.40;;;2.70;;
10246;SDS011;5168;47.854;7.944;2022-10-31T11:33:28;7.47;;;2.00;;
10246;SDS011;5168;47.854;7.944;2022-10-31T11:35:59;5.37;;;2.10;;
10246;SDS011;5168;47.854;7.944;2022-10-31T11:38:33;4.93;;;2.60;;
10246;SDS011;5168;47.854;7.944;2022-10-31T11:41:12;4.17;;;2.10;;
10246;SDS011;5168;47.854;7.944;2022-10-31T11:43:54;3.25;;;2.17;;
10246;SDS011;5168;47.854;7.944;2022-10-31T11:46:39;7.57;;;2.10;;
10246;SDS011;5168;47.854;7.944;2022-10-31T11:49:12;3.75;;;2.00;;
10246;SDS011;5168;47.854;7.944;2022-10-31T11:51:42;5.38;;;2.20;;
10246;SDS011;5168;47.854;7.944;2022-10-31T11:54:19;5.40;;;2.30;;
10246;SDS011;5168;47.854;7.944;2022-10-31T11:56:48;4.93;;;2.30;;
10246;SDS011;5168;47.854;7.944;2022-10-31T11:59:18;4.53;;;2.10;;
10246;SDS011;5168;47.854;7.944;2022-10-31T12:01:49;3.92;;;2.10;;
10246;SDS011;5168;47.854;7.944;2022-10-31T12:04:16;4.78;;;1.88;;
10246;SDS011;5168;47.854;7.944;2022-10-31T12:06:43;3.67;;;1.92;;
10246;SDS011;5168;47.854;7.944;2022-10-31T12:09:19;5.88;;;1.70;;
10246;SDS011;5168;47.854;7.944;2022-10-31T12:11:48;6.22;;;1.67;;
10246;SDS011;5168;47.854;7.944;2022-10-31T12:17:17;4.90;;;1.80;;
10246;SDS011;5168;47.854;7.944;2022-10-31T12:28:11;6.07;;;1.60;;
10246;SDS011;5168;47.854;7.944;2022-10-31T12:41:36;3.70;;;1.60;;
10246;SDS011;5168;47.854;7.944;2022-10-31T12:44:32;5.38;;;1.60;;
10246;SDS011;5168;47.854;7.944;2022-10-31T12:55:34;4.65;;;1.70;;
10246;SDS011;5168;47.854;7.944;2022-10-31T12:58:07;2.28;;;1.55;;
10246;SDS011;5168;47.854;7.944;2022-10-31T13:00:41;7.07;;;1.60;;
10246;SDS011;5168;47.854;7.944;2022-10-31T13:05:54;3.65;;;1.50;;
10246;SDS011;5168;47.854;7.944;2022-10-31T13:08:26;3.75;;;1.80;;
10246;SDS011;5168;47.854;7.944;2022-10-31T13:11:12;3.45;;;1.67;;
10246;SDS011;5168;47.854;7.944;2022-10-31T13:14:05;3.05;;;1.50;;
10246;SDS011;5168;47.854;7.944;2022-10-31T13:16:36;5.68;;;1.88;;
10246;SDS011;5168;47.854;7.944;2022-10-31T13:19:22;7.15;;;1.90;;
10246;SDS011;5168;47.854;7.944;2022-10-31T13:21:53;3.60;;;1.75;;
10246;SDS011;5168;47.854;7.944;2022-10-31T13:24:36;3.88;;;1.58;;
10246;SDS011;5168;47.854;7.944;2022-10-31T13:27:17;4.07;;;1.80;;
10246;SDS011;5168;47.854;7.944;2022-10-31T13:32:19;5.00;;;1.60;;
10246;SDS011;5168;47.854;7.944;2022-10-31T13:34:47;3.30;;;1.65;;
10246;SDS011;5168;47.854;7.944;2022-10-31T13:37:30;4.43;;;1.65;;
10246;SDS011;5168;47.854;7.944;2022-10-31T13:40:05;3.55;;;1.58;;
10246;SDS011;5168;47.854;7.944;2022-10-31T13:45:23;2.38;;;1.50;;
10246;SDS011;5168;47.854;7.944;2022-10-31T13:50:23;3.00;;;1.50;;
10246;SDS011;5168;47.854;7.944;2022-10-31T13:52:51;1.70;;;1.38;;
10246;SDS011;5168;47.854;7.944;2022-10-31T13:58:22;5.57;;;1.67;;
10246;SDS011;5168;47.854;7.944;2022-10-31T14:03:37;3.33;;;1.50;;
10246;SDS011;5168;47.854;7.944;2022-10-31T14:06:04;2.90;;;1.88;;
10246;SDS011;5168;47.854;7.944;2022-10-31T14:08:33;3.30;;;1.90;;
10246;SDS011;5168;47.854;7.944;2022-10-31T14:11:01;2.78;;;1.92;;
10246;SDS011;5168;47.854;7.944;2022-10-31T14:13:35;6.13;;;2.40;;
10246;SDS011;5168;47.854;7.944;2022-10-31T14:16:19;8.00;;;3.08;;
10246;SDS011;5168;47.854;7.944;2022-10-31T14:19:05;2.67;;;1.80;;
10246;SDS011;5168;47.854;7.944;2022-10-31T14:21:38;2.95;;;1.80;;
10246;SDS011;5168;47.854;7.944;2022-10-31T14:26:54;4.20;;;2.05;;
10246;SDS011;5168;47.854;7.944;2022-10-31T14:29:21;3.55;;;1.90;;
10246;SDS011;5168;47.854;7.944;2022-10-31T14:32:15;2.20;;;1.63;;
10246;SDS011;5168;47.854;7.944;2022-10-31T14:45:44;6.85;;;2.03;;
10246;SDS011;5168;47.854;7.944;2022-10-31T14:51:16;4.28;;;2.08;;
10246;SDS011;5168;47.854;7.944;2022-10-31T14:56:14;5.93;;;2.38;;
10246;SDS011;5168;47.854;7.944;2022-10-31T14:58:54;5.27;;;2.07;;
10246;SDS011;5168;47.854;7.944;2022-10-31T15:03:48;6.00;;;1.90;;
10246;SDS011;5168;47.854;7.944;2022-10-31T15:06:15;3.80;;;1.90;;
10246;SDS011;5168;47.854;7.944;2022-10-31T15:08:45;5.57;;;2.20;;
10246;SDS011;5168;47.854;7.944;2022-10-31T15:11:20;4.03;;;1.80;;
10246;SDS011;5168;47.854;7.944;2022-10-31T15:16:15;5.63;;;2.10;;
10246;SDS011;5168;47.854;7.944;2022-10-31T15:18:47;2.70;;;1.60;;
10246;SDS011;5168;47.854;7.944;2022-10-31T15:21:19;4.07;;;2.10;;
10246;SDS011;5168;47.854;7.944;2022-10-31T15:23:46;8.87;;;5.97;;
10246;SDS011;5168;47.854;7.944;2022-10-31T15:26:16;7.77;;;3.47;;
10246;SDS011;5168;47.854;7.944;2022-10-31T15:28:43;4.53;;;2.20;;
10246;SDS011;5168;47.854;7.944;2022-10-31T15:31:13;7.63;;;2.70;;
10246;SDS011;5168;47.854;7.944;2022-10-31T15:33:42;4.73;;;2.53;;
10246;SDS011;5168;47.854;7.944;2022-10-31T15:36:20;4.83;;;2.03;;
10246;SDS011;5168;47.854;7.944;2022-10-31T15:38:46;4.73;;;2.30;;
10246;SDS011;5168;47.854;7.944;2022-10-31T15:41:21;5.77;;;2.10;;
10246;SDS011;5168;47.854;7.944;2022-10-31T15:43:53;3.90;;;2.00;;
10246;SDS011;5168;47.854;7.944;2022-10-31T15:46:20;3.07;;;1.70;;
10246;SDS011;5168;47.854;7.944;2022-10-31T15:48:46;5.87;;;2.60;;
10246;SDS011;5168;47.854;7.944;2022-10-31T15:51:13;6.00;;;2.27;;
10246;SDS011;5168;47.854;7.944;2022-10-31T15:53:46;5.60;;;2.73;;
10246;SDS011;5168;47.854;7.944;2022-10-31T15:56:19;7.03;;;2.40;;
10246;SDS011;5168;47.854;7.944;2022-10-31T15:58:48;3.40;;;2.47;;
10246;SDS011;5168;47.854;7.944;2022-10-31T16:01:23;3.00;;;2.10;;
10246;SDS011;5168;47.854;7.944;2022-10-31T16:06:37;4.40;;;2.10;;
10246;SDS011;5168;47.854;7.944;2022-10-31T16:09:03;4.80;;;2.40;;
10246;SDS011;5168;47.854;7.944;2022-10-31T16:11:47;23.87;;;10.67;;
10246;SDS011;5168;47.854;7.944;2022-10-31T16:16:43;57.37;;;24.60;;
10246;SDS011;5168;47.854;7.944;2022-10-31T16:19:21;29.90;;;12.47;;
10246;SDS011;5168;47.854;7.944;2022-10-31T16:21:48;21.13;;;10.97;;
10246;SDS011;5168;47.854;7.944;2022-10-31T16:24:26;13.10;;;6.77;;
10246;SDS011;5168;47.854;7.944;2022-10-31T16:26:54;9.57;;;4.70;;
10246;SDS011;5168;47.854;7.944;2022-10-31T16:29:36;7.07;;;4.30;;
10246;SDS011;5168;47.854;7.944;2022-10-31T16:32:23;7.37;;;4.50;;
10246;SDS011;5168;47.854;7.944;2022-10-31T16:35:00;4.73;;;3.67;;
10246;SDS011;5168;47.854;7.944;2022-10-31T16:37:46;5.23;;;3.43;;
10246;SDS011;5168;47.854;7.944;2022-10-31T16:40:12;4.37;;;2.87;;
10246;SDS011;5168;47.854;7.944;2022-10-31T16:42:39;5.97;;;2.90;;
10246;SDS011;5168;47.854;7.944;2022-10-31T16:45:06;7.27;;;3.53;;
10246;SDS011;5168;47.854;7.944;2022-10-31T16:47:33;6.27;;;3.87;;
10246;SDS011;5168;47.854;7.944;2022-10-31T16:49:59;6.80;;;3.83;;
10246;SDS011;5168;47.854;7.944;2022-10-31T16:52:25;7.30;;;3.83;;
10246;SDS011;5168;47.854;7.944;2022-10-31T16:54:51;7.37;;;4.23;;
10246;SDS011;5168;47.854;7.944;2022-10-31T16:57:25;5.63;;;3.23;;
10246;SDS011;5168;47.854;7.944;2022-10-31T16:59:54;6.40;;;3.73;;
10246;SDS011;5168;47.854;7.944;2022-10-31T17:02:20;7.90;;;4.03;;
10246;SDS011;5168;47.854;7.944;2022-10-31T17:04:46;8.47;;;4.03;;
10246;SDS011;5168;47.854;7.944;2022-10-31T17:07:12;5.77;;;3.37;;
10246;SDS011;5168;47.854;7.944;2022-10-31T17:09:38;7.20;;;3.83;;
10246;SDS011;5168;47.854;7.944;2022-10-31T17:12:05;8.07;;;4.63;;
10246;SDS011;5168;47.854;7.944;2022-10-31T17:14:34;8.40;;;4.07;;
10246;SDS011;5168;47.854;7.944;2022-10-31T17:17:01;6.83;;;3.90;;
10246;SDS011;5168;47.854;7.944;2022-10-31T17:19:27;4.33;;;3.10;;
10246;SDS011;5168;47.854;7.944;2022-10-31T17:21:52;4.43;;;3.13;;
10246;SDS011;5168;47.854;7.944;2022-10-31T17:24:18;6.13;;;3.00;;
10246;SDS011;5168;47.854;7.944;2022-10-31T17:26:44;4.73;;;2.70;;
10246;SDS011;5168;47.854;7.944;2022-10-31T17:29:11;3.70;;;2.83;;
10246;SDS011;5168;47.854;7.944;2022-10-31T17:31:37;5.87;;;2.97;;
10246;SDS011;5168;47.854;7.944;2022-10-31T17:34:03;9.10;;;3.77;;
10246;SDS011;5168;47.854;7.944;2022-10-31T17:36:30;7.87;;;3.63;;
10246;SDS011;5168;47.854;7.944;2022-10-31T17:38:56;9.93;;;4.10;;
10246;SDS011;5168;47.854;7.944;2022-10-31T17:41:22;11.13;;;4.30;;
10246;SDS011;5168;47.854;7.944;2022-10-31T17:43:48;5.90;;;3.10;;